sensor_id;sensor_type;location;lat;lon;timestamp;pressure;altitude;pressure_sealevel;temperature;humidity
7532;BME280;3807;49.030;8.714;2022-09-27T00:01:50;97537.06;;;14.91;69.05
7532;BME280;3807;49.030;8.714;2022-09-27T00:04:15;97535.12;;;15.04;68.72
7532;BME280;3807;49.030;8.714;2022-09-27T00:06:40;97529.97;;;14.83;69.35
7532;BME280;3807;49.030;8.714;2022-09-27T00:09:06;97536.41;;;14.77;69.54
7532;BME280;3807;49.030;8.714;2022-09-27T00:11:37;97530.59;;;14.75;69.80
7532;BME280;3807;49.030;8.714;2022-09-27T00:14:04;97534.09;;;14.63;69.94
7532;BME280;3807;49.030;8.714;2022-09-27T00:16:33;97533.16;;;14.75;69.51
7532;BME280;3807;49.030;8.714;2022-09-27T00:19:01;97533.25;;;14.74;69.67
7532;BME280;3807;49.030;8.714;2022-09-27T00:21:28;97528.38;;;14.71;69.76
7532;BME280;3807;49.030;8.714;2022-09-27T00:23:55;97533.03;;;14.77;69.31
7532;BME280;3807;49.030;8.714;2022-09-27T00:26:20;97518.63;;;14.65;69.89
7532;BME280;3807;49.030;8.714;2022-09-27T00:28:46;97517.88;;;14.19;71.30
7532;BME280;3807;49.030;8.714;2022-09-27T00:31:29;97520.62;;;14.50;70.53
7532;BME280;3807;49.030;8.714;2022-09-27T00:34:00;97520.28;;;14.55;70.35
7532;BME280;3807;49.030;8.714;2022-09-27T00:36:27;97515.59;;;14.60;70.14
7532;BME280;3807;49.030;8.714;2022-09-27T00:38:54;97521.63;;;14.70;69.62
7532;BME280;3807;49.030;8.714;2022-09-27T00:41:21;97509.44;;;14.40;70.73
7532;BME280;3807;49.030;8.714;2022-09-27T00:43:55;97517.97;;;14.40;70.94
7532;BME280;3807;49.030;8.714;2022-09-27T00:49:25;97516.81;;;14.22;71.76
7532;BME280;3807;49.030;8.714;2022-09-27T00:52:05;97504.62;;;13.92;72.68
7532;BME280;3807;49.030;8.714;2022-09-27T00:54:33;97508.25;;;13.78;73.30
7532;BME280;3807;49.030;8.714;2022-09-27T00:57:01;97519.41;;;13.88;73.10
7532;BME280;3807;49.030;8.714;2022-09-27T00:59:40;97509.53;;;13.95;73.01
7532;BME280;3807;49.030;8.714;2022-09-27T01:02:08;97512.75;;;13.97;72.99
7532;BME280;3807;49.030;8.714;2022-09-27T01:04:35;97508.22;;;13.89;72.99
7532;BME280;3807;49.030;8.714;2022-09-27T01:07:02;97506.94;;;14.06;72.59
7532;BME280;3807;49.030;8.714;2022-09-27T01:09:27;97511.81;;;13.98;72.99
7532;BME280;3807;49.030;8.714;2022-09-27T01:12:05;97498.44;;;13.94;73.15
7532;BME280;3807;49.030;8.714;2022-09-27T01:15:06;97502.84;;;14.15;72.13
7532;BME280;3807;49.030;8.714;2022-09-27T01:20:51;97509.41;;;13.85;73.35
7532;BME280;3807;49.030;8.714;2022-09-27T01:34:33;97509.41;;;13.96;72.81
7532;BME280;3807;49.030;8.714;2022-09-27T01:37:12;97509.72;;;13.69;74.04
7532;BME280;3807;49.030;8.714;2022-09-27T01:40:10;97505.31;;;13.60;74.06
7532;BME280;3807;49.030;8.714;2022-09-27T01:42:55;97510.56;;;13.81;73.34
7532;BME280;3807;49.030;8.714;2022-09-27T01:48:15;97510.66;;;13.68;73.70
7532;BME280;3807;49.030;8.714;2022-09-27T01:50:50;97509.28;;;13.64;73.73
7532;BME280;3807;49.030;8.714;2022-09-27T01:53:24;97504.97;;;13.65;73.27
7532;BME280;3807;49.030;8.714;2022-09-27T01:55:52;97517.84;;;13.41;74.42
7532;BME280;3807;49.030;8.714;2022-09-27T01:58:33;97522.13;;;13.40;74.62
7532;BME280;3807;49.030;8.714;2022-09-27T02:01:02;97523.31;;;13.58;73.84
7532;BME280;3807;49.030;8.714;2022-09-27T02:03:39;97527.19;;;13.64;73.79
7532;BME280;3807;49.030;8.714;2022-09-27T02:06:14;97535.75;;;13.52;74.14
7532;BME280;3807;49.030;8.714;2022-09-27T02:09:05;97526.91;;;13.56;74.02
7532;BME280;3807;49.030;8.714;2022-09-27T02:11:34;97542.16;;;13.46;74.15
7532;BME280;3807;49.030;8.714;2022-09-27T02:14:10;97535.59;;;13.42;74.57
7532;BME280;3807;49.030;8.714;2022-09-27T02:16:53;97543.78;;;13.58;73.66
7532;BME280;3807;49.030;8.714;2022-09-27T02:19:37;97540.63;;;13.44;74.18
7532;BME280;3807;49.030;8.714;2022-09-27T02:25:32;97548.09;;;13.69;73.08
7532;BME280;3807;49.030;8.714;2022-09-27T02:30:13;97554.34;;;13.43;74.20
7532;BME280;3807;49.030;8.714;2022-09-27T02:32:40;97549.34;;;13.52;73.73
7532;BME280;3807;49.030;8.714;2022-09-27T02:35:10;97547.59;;;13.42;73.83
7532;BME280;3807;49.030;8.714;2022-09-27T02:37:37;97546.75;;;13.30;74.39
7532;BME280;3807;49.030;8.714;2022-09-27T02:40:03;97545.16;;;13.51;73.74
7532;BME280;3807;49.030;8.714;2022-09-27T02:42:29;97548.50;;;13.29;74.67
7532;BME280;3807;49.030;8.714;2022-09-27T02:44:55;97547.09;;;13.25;74.54
7532;BME280;3807;49.030;8.714;2022-09-27T02:52:42;97560.59;;;13.39;74.30
7532;BME280;3807;49.030;8.714;2022-09-27T02:55:21;97547.59;;;13.18;74.97
7532;BME280;3807;49.030;8.714;2022-09-27T03:00:21;97562.19;;;13.04;75.17
7532;BME280;3807;49.030;8.714;2022-09-27T03:03:04;97554.06;;;13.10;75.09
7532;BME280;3807;49.030;8.714;2022-09-27T03:05:36;97544.78;;;13.09;74.77
7532;BME280;3807;49.030;8.714;2022-09-27T03:08:03;97558.97;;;13.14;74.87
7532;BME280;3807;49.030;8.714;2022-09-27T03:10:29;97553.81;;;13.02;75.29
7532;BME280;3807;49.030;8.714;2022-09-27T03:12:55;97549.91;;;13.33;74.00
7532;BME280;3807;49.030;8.714;2022-09-27T03:15:23;97560.72;;;12.89;75.77
7532;BME280;3807;49.030;8.714;2022-09-27T03:17:48;97567.78;;;13.09;75.05
7532;BME280;3807;49.030;8.714;2022-09-27T03:20:13;97555.81;;;13.10;74.95
7532;BME280;3807;49.030;8.714;2022-09-27T03:22:39;97562.84;;;12.95;75.62
7532;BME280;3807;49.030;8.714;2022-09-27T03:25:05;97562.28;;;13.03;75.24
7532;BME280;3807;49.030;8.714;2022-09-27T03:27:31;97571.31;;;12.96;75.30
7532;BME280;3807;49.030;8.714;2022-09-27T03:29:57;97573.62;;;12.87;75.70
7532;BME280;3807;49.030;8.714;2022-09-27T03:32:24;97580.31;;;13.01;75.18
7532;BME280;3807;49.030;8.714;2022-09-27T03:34:49;97577.25;;;12.96;75.49
7532;BME280;3807;49.030;8.714;2022-09-27T03:37:15;97581.50;;;13.08;74.92
7532;BME280;3807;49.030;8.714;2022-09-27T03:39:40;97586.47;;;13.10;74.59
7532;BME280;3807;49.030;8.714;2022-09-27T03:42:06;97586.81;;;13.05;74.89
7532;BME280;3807;49.030;8.714;2022-09-27T03:44:31;97586.59;;;12.84;75.79
7532;BME280;3807;49.030;8.714;2022-09-27T03:46:57;97589.00;;;12.99;75.37
7532;BME280;3807;49.030;8.714;2022-09-27T03:49:23;97581.97;;;12.90;75.14
7532;BME280;3807;49.030;8.714;2022-09-27T03:51:48;97588.72;;;12.91;75.33
7532;BME280;3807;49.030;8.714;2022-09-27T03:54:13;97597.81;;;12.95;75.26
7532;BME280;3807;49.030;8.714;2022-09-27T03:56:39;97591.28;;;12.91;75.25
7532;BME280;3807;49.030;8.714;2022-09-27T03:59:04;97594.81;;;13.01;74.98
7532;BME280;3807;49.030;8.714;2022-09-27T04:01:30;97596.31;;;13.03;74.79
7532;BME280;3807;49.030;8.714;2022-09-27T04:03:55;97594.47;;;12.81;75.86
7532;BME280;3807;49.030;8.714;2022-09-27T04:06:20;97601.97;;;12.96;75.17
7532;BME280;3807;49.030;8.714;2022-09-27T04:08:47;97598.34;;;13.11;74.51
7532;BME280;3807;49.030;8.714;2022-09-27T04:11:12;97605.50;;;12.82;75.36
7532;BME280;3807;49.030;8.714;2022-09-27T04:13:39;97608.34;;;12.90;74.90
7532;BME280;3807;49.030;8.714;2022-09-27T04:16:05;97609.69;;;12.83;75.42
7532;BME280;3807;49.030;8.714;2022-09-27T04:18:32;97607.53;;;12.90;75.05
7532;BME280;3807;49.030;8.714;2022-09-27T04:20:57;97611.72;;;13.15;74.10
7532;BME280;3807;49.030;8.714;2022-09-27T04:23:22;97615.53;;;13.09;74.36
7532;BME280;3807;49.030;8.714;2022-09-27T04:25:49;97616.84;;;12.91;75.00
7532;BME280;3807;49.030;8.714;2022-09-27T04:28:14;97611.81;;;12.89;75.15
7532;BME280;3807;49.030;8.714;2022-09-27T04:30:40;97618.41;;;13.04;74.49
7532;BME280;3807;49.030;8.714;2022-09-27T04:33:06;97623.41;;;13.06;74.43
7532;BME280;3807;49.030;8.714;2022-09-27T04:35:31;97606.91;;;12.86;75.06
7532;BME280;3807;49.030;8.714;2022-09-27T04:38:15;97612.94;;;12.98;74.64
7532;BME280;3807;49.030;8.714;2022-09-27T04:40:41;97600.87;;;12.63;75.67
7532;BME280;3807;49.030;8.714;2022-09-27T04:43:07;97613.00;;;12.72;75.54
7532;BME280;3807;49.030;8.714;2022-09-27T04:45:32;97610.81;;;12.79;75.06
7532;BME280;3807;49.030;8.714;2022-09-27T04:47:58;97628.81;;;12.90;74.84
7532;BME280;3807;49.030;8.714;2022-09-27T04:50:23;97625.31;;;12.91;74.60
7532;BME280;3807;49.030;8.714;2022-09-27T04:52:53;97634.53;;;12.81;74.84
7532;BME280;3807;49.030;8.714;2022-09-27T04:55:19;97633.72;;;12.80;74.73
7532;BME280;3807;49.030;8.714;2022-09-27T04:57:45;97635.50;;;12.67;75.33
7532;BME280;3807;49.030;8.714;2022-09-27T05:00:11;97639.91;;;12.52;75.91
7532;BME280;3807;49.030;8.714;2022-09-27T05:02:38;97648.69;;;12.61;75.63
7532;BME280;3807;49.030;8.714;2022-09-27T05:05:04;97649.31;;;12.52;75.86
7532;BME280;3807;49.030;8.714;2022-09-27T05:07:33;97647.25;;;12.70;75.28
7532;BME280;3807;49.030;8.714;2022-09-27T05:09:58;97647.44;;;12.67;75.10
7532;BME280;3807;49.030;8.714;2022-09-27T05:12:25;97652.38;;;12.57;75.57
7532;BME280;3807;49.030;8.714;2022-09-27T05:14:52;97664.59;;;12.77;74.68
7532;BME280;3807;49.030;8.714;2022-09-27T05:17:17;97678.50;;;12.73;74.74
7532;BME280;3807;49.030;8.714;2022-09-27T05:19:43;97682.78;;;12.73;74.70
7532;BME280;3807;49.030;8.714;2022-09-27T05:22:08;97675.50;;;12.79;74.27
7532;BME280;3807;49.030;8.714;2022-09-27T05:24:34;97687.03;;;12.85;74.28
7532;BME280;3807;49.030;8.714;2022-09-27T05:27:00;97688.72;;;12.73;74.73
7532;BME280;3807;49.030;8.714;2022-09-27T05:29:25;97692.81;;;12.63;75.15
7532;BME280;3807;49.030;8.714;2022-09-27T05:31:51;97700.16;;;12.55;75.73
7532;BME280;3807;49.030;8.714;2022-09-27T05:34:16;97707.53;;;12.59;75.39
7532;BME280;3807;49.030;8.714;2022-09-27T05:36:46;97707.69;;;12.82;74.69
7532;BME280;3807;49.030;8.714;2022-09-27T05:39:11;97711.16;;;12.81;74.54
7532;BME280;3807;49.030;8.714;2022-09-27T05:41:37;97713.53;;;12.71;75.18
7532;BME280;3807;49.030;8.714;2022-09-27T05:44:03;97725.69;;;12.68;75.11
7532;BME280;3807;49.030;8.714;2022-09-27T05:46:30;97724.34;;;12.75;75.00
7532;BME280;3807;49.030;8.714;2022-09-27T05:48:55;97724.06;;;12.67;75.00
7532;BME280;3807;49.030;8.714;2022-09-27T05:51:20;97722.53;;;12.64;75.08
7532;BME280;3807;49.030;8.714;2022-09-27T05:53:46;97724.78;;;12.56;75.48
7532;BME280;3807;49.030;8.714;2022-09-27T05:56:11;97723.13;;;12.80;74.58
7532;BME280;3807;49.030;8.714;2022-09-27T05:58:37;97734.97;;;12.81;74.44
7532;BME280;3807;49.030;8.714;2022-09-27T06:01:05;97728.00;;;12.96;73.62
7532;BME280;3807;49.030;8.714;2022-09-27T06:03:31;97723.97;;;12.55;75.11
7532;BME280;3807;49.030;8.714;2022-09-27T06:06:00;97730.37;;;12.61;74.95
7532;BME280;3807;49.030;8.714;2022-09-27T06:08:31;97726.09;;;12.87;73.88
7532;BME280;3807;49.030;8.714;2022-09-27T06:11:04;97723.84;;;12.70;74.52
7532;BME280;3807;49.030;8.714;2022-09-27T06:13:30;97734.47;;;12.76;74.21
7532;BME280;3807;49.030;8.714;2022-09-27T06:15:57;97733.88;;;12.73;74.32
7532;BME280;3807;49.030;8.714;2022-09-27T06:18:23;97734.78;;;12.72;74.35
7532;BME280;3807;49.030;8.714;2022-09-27T06:20:49;97745.31;;;12.80;73.89
7532;BME280;3807;49.030;8.714;2022-09-27T06:23:18;97744.97;;;12.72;74.18
7532;BME280;3807;49.030;8.714;2022-09-27T06:25:45;97753.16;;;12.77;73.93
7532;BME280;3807;49.030;8.714;2022-09-27T06:28:14;97754.06;;;12.76;74.29
7532;BME280;3807;49.030;8.714;2022-09-27T06:30:41;97760.31;;;12.72;74.01
7532;BME280;3807;49.030;8.714;2022-09-27T06:33:10;97752.75;;;12.45;74.87
7532;BME280;3807;49.030;8.714;2022-09-27T06:35:36;97757.34;;;12.65;74.22
7532;BME280;3807;49.030;8.714;2022-09-27T06:38:03;97752.66;;;12.72;73.72
7532;BME280;3807;49.030;8.714;2022-09-27T06:40:30;97764.00;;;12.68;73.81
7532;BME280;3807;49.030;8.714;2022-09-27T06:43:03;97768.78;;;12.72;73.50
7532;BME280;3807;49.030;8.714;2022-09-27T06:45:29;97776.37;;;12.74;73.66
7532;BME280;3807;49.030;8.714;2022-09-27T06:47:56;97777.06;;;12.76;73.34
7532;BME280;3807;49.030;8.714;2022-09-27T06:50:21;97775.22;;;12.78;73.11
7532;BME280;3807;49.030;8.714;2022-09-27T06:52:47;97785.03;;;12.84;72.99
7532;BME280;3807;49.030;8.714;2022-09-27T06:55:13;97786.69;;;12.59;73.87
7532;BME280;3807;49.030;8.714;2022-09-27T06:57:39;97788.13;;;12.76;73.28
7532;BME280;3807;49.030;8.714;2022-09-27T07:00:22;97790.44;;;12.79;73.09
7532;BME280;3807;49.030;8.714;2022-09-27T07:02:48;97796.59;;;12.77;73.12
7532;BME280;3807;49.030;8.714;2022-09-27T07:05:15;97810.25;;;12.76;73.11
7532;BME280;3807;49.030;8.714;2022-09-27T07:07:41;97801.50;;;12.67;73.61
7532;BME280;3807;49.030;8.714;2022-09-27T07:10:09;97809.25;;;12.78;73.04
7532;BME280;3807;49.030;8.714;2022-09-27T07:12:35;97808.53;;;12.51;73.84
7532;BME280;3807;49.030;8.714;2022-09-27T07:15:01;97805.37;;;12.60;73.82
7532;BME280;3807;49.030;8.714;2022-09-27T07:17:26;97809.44;;;12.75;73.32
7532;BME280;3807;49.030;8.714;2022-09-27T07:19:52;97809.34;;;12.64;73.50
7532;BME280;3807;49.030;8.714;2022-09-27T07:22:18;97815.09;;;12.80;72.88
7532;BME280;3807;49.030;8.714;2022-09-27T07:24:44;97820.28;;;12.79;72.93
7532;BME280;3807;49.030;8.714;2022-09-27T07:27:09;97824.09;;;12.73;73.04
7532;BME280;3807;49.030;8.714;2022-09-27T07:29:34;97822.22;;;12.75;72.88
7532;BME280;3807;49.030;8.714;2022-09-27T07:32:00;97830.19;;;12.71;73.21
7532;BME280;3807;49.030;8.714;2022-09-27T07:34:26;97834.47;;;12.57;73.58
7532;BME280;3807;49.030;8.714;2022-09-27T07:36:52;97835.81;;;12.76;72.86
7532;BME280;3807;49.030;8.714;2022-09-27T07:39:19;97844.41;;;12.75;72.99
7532;BME280;3807;49.030;8.714;2022-09-27T07:41:46;97858.72;;;12.77;72.92
7532;BME280;3807;49.030;8.714;2022-09-27T07:44:12;97870.25;;;12.70;73.19
7532;BME280;3807;49.030;8.714;2022-09-27T07:46:40;97863.69;;;12.53;73.95
7532;BME280;3807;49.030;8.714;2022-09-27T07:49:06;97861.97;;;12.67;73.17
7532;BME280;3807;49.030;8.714;2022-09-27T07:51:31;97858.19;;;12.85;72.45
7532;BME280;3807;49.030;8.714;2022-09-27T07:53:58;97864.63;;;12.78;72.84
7532;BME280;3807;49.030;8.714;2022-09-27T07:56:24;97869.72;;;12.65;73.31
7532;BME280;3807;49.030;8.714;2022-09-27T07:58:49;97869.25;;;12.73;72.82
7532;BME280;3807;49.030;8.714;2022-09-27T08:01:14;97878.84;;;12.82;72.63
7532;BME280;3807;49.030;8.714;2022-09-27T08:03:40;97886.09;;;12.88;72.36
7532;BME280;3807;49.030;8.714;2022-09-27T08:06:05;97889.16;;;12.80;72.53
7532;BME280;3807;49.030;8.714;2022-09-27T08:08:31;97886.84;;;12.90;72.26
7532;BME280;3807;49.030;8.714;2022-09-27T08:10:56;97891.22;;;12.88;72.05
7532;BME280;3807;49.030;8.714;2022-09-27T08:13:23;97897.53;;;12.82;72.48
7532;BME280;3807;49.030;8.714;2022-09-27T08:15:48;97906.53;;;12.88;72.32
7532;BME280;3807;49.030;8.714;2022-09-27T08:18:16;97900.09;;;12.82;72.42
7532;BME280;3807;49.030;8.714;2022-09-27T08:20:41;97901.44;;;12.88;72.25
7532;BME280;3807;49.030;8.714;2022-09-27T08:23:07;97906.97;;;12.95;72.12
7532;BME280;3807;49.030;8.714;2022-09-27T08:25:32;97905.63;;;12.89;72.23
7532;BME280;3807;49.030;8.714;2022-09-27T08:28:00;97910.22;;;12.97;71.95
7532;BME280;3807;49.030;8.714;2022-09-27T08:30:26;97904.59;;;12.92;72.17
7532;BME280;3807;49.030;8.714;2022-09-27T08:32:56;97897.66;;;12.94;72.07
7532;BME280;3807;49.030;8.714;2022-09-27T08:35:22;97891.63;;;12.69;73.14
7532;BME280;3807;49.030;8.714;2022-09-27T08:37:58;97891.22;;;12.88;72.58
7532;BME280;3807;49.030;8.714;2022-09-27T08:40:37;97896.13;;;12.91;72.58
7532;BME280;3807;49.030;8.714;2022-09-27T08:49:22;97892.25;;;12.98;72.75
7532;BME280;3807;49.030;8.714;2022-09-27T08:51:50;97894.56;;;12.76;73.93
7532;BME280;3807;49.030;8.714;2022-09-27T08:54:25;97888.13;;;12.70;73.86
7532;BME280;3807;49.030;8.714;2022-09-27T08:56:57;97898.94;;;12.61;74.43
7532;BME280;3807;49.030;8.714;2022-09-27T08:59:30;97893.53;;;12.78;73.50
7532;BME280;3807;49.030;8.714;2022-09-27T09:01:58;97882.91;;;12.72;73.67
7532;BME280;3807;49.030;8.714;2022-09-27T09:04:32;97891.59;;;12.82;73.53
7532;BME280;3807;49.030;8.714;2022-09-27T09:09:51;97891.00;;;12.91;73.08
7532;BME280;3807;49.030;8.714;2022-09-27T09:21:24;97895.13;;;12.94;73.15
7532;BME280;3807;49.030;8.714;2022-09-27T09:26:33;97885.28;;;13.13;72.57
7532;BME280;3807;49.030;8.714;2022-09-27T09:34:46;97879.28;;;13.01;72.73
7532;BME280;3807;49.030;8.714;2022-09-27T09:37:19;97881.19;;;13.10;72.49
7532;BME280;3807;49.030;8.714;2022-09-27T09:39:56;97880.59;;;13.07;72.11
7532;BME280;3807;49.030;8.714;2022-09-27T09:42:27;97885.09;;;13.16;72.12
7532;BME280;3807;49.030;8.714;2022-09-27T09:44:59;97889.50;;;13.01;71.74
7532;BME280;3807;49.030;8.714;2022-09-27T09:47:28;97882.84;;;12.99;72.61
7532;BME280;3807;49.030;8.714;2022-09-27T09:50:02;97878.56;;;13.25;71.86
7532;BME280;3807;49.030;8.714;2022-09-27T09:52:38;97889.06;;;13.46;71.13
7532;BME280;3807;49.030;8.714;2022-09-27T09:55:28;97883.06;;;13.47;70.80
7532;BME280;3807;49.030;8.714;2022-09-27T10:00:28;97880.44;;;13.59;70.30
7532;BME280;3807;49.030;8.714;2022-09-27T10:02:57;97879.69;;;13.46;70.03
7532;BME280;3807;49.030;8.714;2022-09-27T10:05:25;97878.47;;;13.76;69.77
7532;BME280;3807;49.030;8.714;2022-09-27T10:07:54;97869.00;;;13.52;70.26
7532;BME280;3807;49.030;8.714;2022-09-27T10:10:22;97875.50;;;13.32;70.35
7532;BME280;3807;49.030;8.714;2022-09-27T10:12:48;97878.34;;;13.53;69.94
7532;BME280;3807;49.030;8.714;2022-09-27T10:15:20;97887.97;;;13.50;69.86
7532;BME280;3807;49.030;8.714;2022-09-27T10:17:51;97881.84;;;13.40;70.09
7532;BME280;3807;49.030;8.714;2022-09-27T10:20:38;97887.88;;;13.26;70.82
7532;BME280;3807;49.030;8.714;2022-09-27T10:23:13;97894.69;;;13.51;70.57
7532;BME280;3807;49.030;8.714;2022-09-27T10:25:53;97882.44;;;13.43;70.75
7532;BME280;3807;49.030;8.714;2022-09-27T10:28:36;97893.38;;;13.45;70.80
7532;BME280;3807;49.030;8.714;2022-09-27T10:31:07;97874.44;;;13.48;71.01
7532;BME280;3807;49.030;8.714;2022-09-27T10:33:36;97880.50;;;13.34;71.70
7532;BME280;3807;49.030;8.714;2022-09-27T10:36:02;97877.09;;;12.82;73.37
7532;BME280;3807;49.030;8.714;2022-09-27T10:38:34;97884.06;;;13.31;72.49
7532;BME280;3807;49.030;8.714;2022-09-27T10:41:22;97885.50;;;13.48;71.54
7532;BME280;3807;49.030;8.714;2022-09-27T10:43:48;97880.09;;;13.53;71.87
7532;BME280;3807;49.030;8.714;2022-09-27T10:48:45;97877.19;;;13.70;71.03
7532;BME280;3807;49.030;8.714;2022-09-27T10:51:28;97869.78;;;13.78;70.33
7532;BME280;3807;49.030;8.714;2022-09-27T10:53:55;97877.69;;;13.63;71.16
7532;BME280;3807;49.030;8.714;2022-09-27T10:56:32;97885.28;;;13.51;71.95
7532;BME280;3807;49.030;8.714;2022-09-27T10:58:58;97876.19;;;13.60;71.51
7532;BME280;3807;49.030;8.714;2022-09-27T11:01:44;97885.34;;;13.75;71.20
7532;BME280;3807;49.030;8.714;2022-09-27T11:04:20;97882.41;;;13.56;71.87
7532;BME280;3807;49.030;8.714;2022-09-27T11:06:47;97897.47;;;13.61;71.83
7532;BME280;3807;49.030;8.714;2022-09-27T11:09:19;97900.88;;;13.36;72.95
7532;BME280;3807;49.030;8.714;2022-09-27T11:11:47;97886.91;;;12.88;74.24
7532;BME280;3807;49.030;8.714;2022-09-27T11:14:18;97893.91;;;13.25;73.34
7532;BME280;3807;49.030;8.714;2022-09-27T11:25:40;97870.47;;;13.80;70.26
7532;BME280;3807;49.030;8.714;2022-09-27T11:28:41;97866.22;;;13.68;71.07
7532;BME280;3807;49.030;8.714;2022-09-27T11:31:33;97877.41;;;13.16;72.57
7532;BME280;3807;49.030;8.714;2022-09-27T11:34:26;97865.56;;;13.02;73.26
7532;BME280;3807;49.030;8.714;2022-09-27T11:37:10;97871.22;;;13.33;72.21
7532;BME280;3807;49.030;8.714;2022-09-27T11:39:55;97887.97;;;13.50;71.55
7532;BME280;3807;49.030;8.714;2022-09-27T11:45:29;97896.34;;;13.01;72.57
7532;BME280;3807;49.030;8.714;2022-09-27T11:51:07;97889.91;;;13.33;71.43
7532;BME280;3807;49.030;8.714;2022-09-27T11:59:27;97888.22;;;12.69;73.39
7532;BME280;3807;49.030;8.714;2022-09-27T12:02:15;97883.56;;;13.14;71.83
7532;BME280;3807;49.030;8.714;2022-09-27T12:10:24;97852.28;;;12.97;72.18
7532;BME280;3807;49.030;8.714;2022-09-27T12:12:52;97858.50;;;13.19;71.59
7532;BME280;3807;49.030;8.714;2022-09-27T12:15:25;97859.13;;;13.09;71.91
7532;BME280;3807;49.030;8.714;2022-09-27T12:18:10;97858.75;;;13.28;71.28
7532;BME280;3807;49.030;8.714;2022-09-27T12:20:39;97857.69;;;13.44;71.00
7532;BME280;3807;49.030;8.714;2022-09-27T12:23:11;97847.78;;;13.39;71.15
7532;BME280;3807;49.030;8.714;2022-09-27T12:25:41;97861.78;;;13.33;71.77
7532;BME280;3807;49.030;8.714;2022-09-27T12:31:13;97854.13;;;13.33;72.29
7532;BME280;3807;49.030;8.714;2022-09-27T12:36:38;97836.94;;;13.23;71.65
7532;BME280;3807;49.030;8.714;2022-09-27T12:39:18;97833.25;;;13.14;73.45
7532;BME280;3807;49.030;8.714;2022-09-27T12:42:09;97831.91;;;13.47;74.93
7532;BME280;3807;49.030;8.714;2022-09-27T12:44:38;97833.19;;;13.65;75.99
7532;BME280;3807;49.030;8.714;2022-09-27T12:47:33;97841.09;;;14.10;74.50
7532;BME280;3807;49.030;8.714;2022-09-27T12:52:58;97842.03;;;14.80;74.46
7532;BME280;3807;49.030;8.714;2022-09-27T12:55:31;97839.47;;;14.44;73.92
7532;BME280;3807;49.030;8.714;2022-09-27T12:58:13;97834.34;;;14.80;75.39
7532;BME280;3807;49.030;8.714;2022-09-27T13:00:57;97838.94;;;14.52;73.97
7532;BME280;3807;49.030;8.714;2022-09-27T13:14:41;97832.50;;;14.93;73.71
7532;BME280;3807;49.030;8.714;2022-09-27T13:20:32;97842.28;;;14.99;72.62
7532;BME280;3807;49.030;8.714;2022-09-27T13:26:01;97830.88;;;15.03;73.37
7532;BME280;3807;49.030;8.714;2022-09-27T13:33:45;97837.28;;;15.09;73.32
7532;BME280;3807;49.030;8.714;2022-09-27T13:46:49;97821.09;;;15.42;71.81
7532;BME280;3807;49.030;8.714;2022-09-27T13:49:41;97820.63;;;15.14;71.41
7532;BME280;3807;49.030;8.714;2022-09-27T13:52:28;97815.47;;;15.37;71.81
7532;BME280;3807;49.030;8.714;2022-09-27T13:54:59;97811.78;;;15.07;71.54
7532;BME280;3807;49.030;8.714;2022-09-27T13:57:52;97807.22;;;15.22;70.96
7532;BME280;3807;49.030;8.714;2022-09-27T14:00:24;97801.72;;;15.49;71.39
7532;BME280;3807;49.030;8.714;2022-09-27T14:03:03;97806.28;;;15.34;70.42
7532;BME280;3807;49.030;8.714;2022-09-27T14:05:57;97803.12;;;15.42;70.65
7532;BME280;3807;49.030;8.714;2022-09-27T14:08:41;97811.38;;;15.68;69.57
7532;BME280;3807;49.030;8.714;2022-09-27T14:11:22;97803.72;;;15.23;70.08
7532;BME280;3807;49.030;8.714;2022-09-27T14:13:49;97811.53;;;14.88;72.13
7532;BME280;3807;49.030;8.714;2022-09-27T14:16:16;97808.59;;;15.26;71.40
7532;BME280;3807;49.030;8.714;2022-09-27T14:18:45;97819.88;;;15.57;71.05
7532;BME280;3807;49.030;8.714;2022-09-27T14:21:34;97821.53;;;15.47;70.19
7532;BME280;3807;49.030;8.714;2022-09-27T14:27:23;97815.47;;;14.92;72.47
7532;BME280;3807;49.030;8.714;2022-09-27T14:29:58;97810.12;;;15.17;72.30
7532;BME280;3807;49.030;8.714;2022-09-27T14:32:32;97801.03;;;15.36;71.62
7532;BME280;3807;49.030;8.714;2022-09-27T14:38:06;97811.16;;;15.48;71.18
7532;BME280;3807;49.030;8.714;2022-09-27T14:40:38;97810.81;;;15.19;71.95
7532;BME280;3807;49.030;8.714;2022-09-27T14:43:04;97795.09;;;14.90;73.31
7532;BME280;3807;49.030;8.714;2022-09-27T14:45:37;97799.66;;;15.20;71.95
7532;BME280;3807;49.030;8.714;2022-09-27T14:48:28;97802.66;;;15.25;72.15
7532;BME280;3807;49.030;8.714;2022-09-27T14:53:41;97809.88;;;14.75;72.36
7532;BME280;3807;49.030;8.714;2022-09-27T14:56:13;97815.25;;;14.72;73.26
7532;BME280;3807;49.030;8.714;2022-09-27T14:58:41;97820.16;;;15.20;71.91
7532;BME280;3807;49.030;8.714;2022-09-27T15:01:14;97818.44;;;15.10;71.83
7532;BME280;3807;49.030;8.714;2022-09-27T15:03:41;97815.97;;;14.86;71.84
7532;BME280;3807;49.030;8.714;2022-09-27T15:06:08;97809.06;;;14.75;72.34
7532;BME280;3807;49.030;8.714;2022-09-27T15:08:34;97811.59;;;14.64;71.95
7532;BME280;3807;49.030;8.714;2022-09-27T15:11:04;97806.13;;;14.57;73.72
7532;BME280;3807;49.030;8.714;2022-09-27T15:13:31;97807.91;;;14.79;71.91
7532;BME280;3807;49.030;8.714;2022-09-27T15:15:57;97817.72;;;14.96;72.09
7532;BME280;3807;49.030;8.714;2022-09-27T15:21:03;97821.09;;;15.08;71.30
7532;BME280;3807;49.030;8.714;2022-09-27T15:23:34;97816.53;;;15.12;71.39
7532;BME280;3807;49.030;8.714;2022-09-27T15:28:34;97810.72;;;15.10;71.65
7532;BME280;3807;49.030;8.714;2022-09-27T15:31:02;97809.19;;;15.30;70.93
7532;BME280;3807;49.030;8.714;2022-09-27T15:33:30;97818.06;;;15.14;70.99
7532;BME280;3807;49.030;8.714;2022-09-27T15:35:58;97814.56;;;15.04;70.34
7532;BME280;3807;49.030;8.714;2022-09-27T15:38:34;97811.06;;;15.05;71.45
7532;BME280;3807;49.030;8.714;2022-09-27T15:43:34;97822.13;;;14.94;71.55
7532;BME280;3807;49.030;8.714;2022-09-27T15:46:03;97818.47;;;14.74;70.53
7532;BME280;3807;49.030;8.714;2022-09-27T15:48:31;97825.50;;;14.84;71.77
7532;BME280;3807;49.030;8.714;2022-09-27T15:50:57;97820.00;;;14.88;70.91
7532;BME280;3807;49.030;8.714;2022-09-27T15:56:05;97810.84;;;15.08;70.90
7532;BME280;3807;49.030;8.714;2022-09-27T15:58:31;97820.72;;;15.01;70.21
7532;BME280;3807;49.030;8.714;2022-09-27T16:01:02;97816.28;;;14.81;71.52
7532;BME280;3807;49.030;8.714;2022-09-27T16:03:29;97822.00;;;14.85;70.55
7532;BME280;3807;49.030;8.714;2022-09-27T16:05:56;97814.31;;;14.85;70.13
7532;BME280;3807;49.030;8.714;2022-09-27T16:08:22;97827.00;;;14.75;71.47
7532;BME280;3807;49.030;8.714;2022-09-27T16:10:50;97830.91;;;14.57;71.86
7532;BME280;3807;49.030;8.714;2022-09-27T16:13:16;97828.06;;;14.37;72.23